Terminal Aerodrome Forecast
Issued by NWS

Home | Current Version | Previous Version | Graphics & Text | Print | Product List | Glossary On
Versions: 1 2 3 4 5 6 7 8 9 10 11 12 13 14 15 16 17 18 19 20 21
435
FTUS41 KCLE 192332
TAFFDY
TAF
KFDY 192332Z 2000/2024 06014KT P6SM SCT010 BKN025
     FM200200 04011KT P6SM BKN015
      TEMPO 2004/2008 5SM BR BKN008
     FM201700 08009KT P6SM BKN035=

USA.gov is the U.S. government's official web portal to all federal, state and local government web resources and services.